Time;durP1;ratioP1;P1;durP2;ratioP2;P2;SDS_P1;SDS_P2;PMS_P1;PMS_P2;Temp;Humidity;BMP_temperature;BMP_pressure;BME280_temperature;BME280_humidity;BME280_pressure;Samples;Min_cycle;Max_cycle;Signal;HPM_P1;HPM_P2
2023/12/25 00:02:11;;;;;;;12.10;4.35;;;;;;;12.91;100.00;100325.81;5097213;27;20040;-74
2023/12/25 00:04:36;;;;;;;11.43;4.10;;;;;;;12.96;100.00;100344.19;5079649;27;20036;-74
2023/12/25 00:07:02;;;;;;;11.23;5.18;;;;;;;12.92;100.00;100353.44;5098779;27;20917;-74
2023/12/25 00:09:27;;;;;;;11.27;5.00;;;;;;;12.90;100.00;100344.66;5091701;27;20858;-74
2023/12/25 00:11:53;;;;;;;12.18;4.75;;;;;;;13.00;100.00;100356.31;5092237;27;20053;-74
2023/12/25 00:14:18;;;;;;;11.82;4.97;;;;;;;12.95;100.00;100348.69;5073588;28;20048;-76
2023/12/25 00:16:44;;;;;;;9.20;4.75;;;;;;;12.91;100.00;100351.75;5098717;27;32077;-75
2023/12/25 00:19:10;;;;;;;11.18;4.00;;;;;;;12.91;100.00;100355.25;5095173;27;20071;-73
2023/12/25 00:21:36;;;;;;;11.25;4.07;;;;;;;12.93;100.00;100333.72;5090851;28;20093;-74
2023/12/25 00:24:02;;;;;;;13.63;5.18;;;;;;;12.96;100.00;100336.16;5095165;27;20070;-73
2023/12/25 00:26:27;;;;;;;9.95;4.65;;;;;;;12.87;100.00;100335.06;5094238;27;20055;-74
2023/12/25 00:29:00;;;;;;;9.60;4.72;;;;;;;12.87;100.00;100331.53;5088720;27;20047;-74
2023/12/25 00:31:25;;;;;;;10.35;4.82;;;;;;;12.79;100.00;100333.97;5090947;27;20031;-74
2023/12/25 00:33:51;;;;;;;13.57;5.63;;;;;;;12.82;100.00;100339.94;5056483;28;20044;-74
2023/12/25 00:36:17;;;;;;;9.50;4.90;;;;;;;12.80;100.00;100341.91;5073814;28;20055;-74
2023/12/25 00:38:42;;;;;;;12.88;4.80;;;;;;;12.76;100.00;100326.22;5094312;27;20189;-74
2023/12/25 00:41:08;;;;;;;14.73;4.78;;;;;;;12.80;100.00;100333.88;5102134;27;20042;-74
2023/12/25 00:43:33;;;;;;;14.55;4.93;;;;;;;12.75;100.00;100322.69;5096305;27;20032;-74
2023/12/25 00:46:04;;;;;;;6.40;4.18;;;;;;;12.76;100.00;100332.41;5090258;28;20055;-74
2023/12/25 00:48:29;;;;;;;5.03;3.80;;;;;;;12.83;100.00;100332.75;5090497;28;20047;-73
2023/12/25 00:50:55;;;;;;;7.85;4.43;;;;;;;12.81;100.00;100335.56;5094140;27;20032;-74
2023/12/25 00:53:20;;;;;;;6.93;3.78;;;;;;;12.80;100.00;100349.06;5078510;27;20061;-74
2023/12/25 00:55:49;;;;;;;9.15;4.20;;;;;;;12.74;100.00;100361.09;5095546;27;20047;-74
2023/12/25 00:58:14;;;;;;;9.70;4.10;;;;;;;12.81;100.00;100361.47;5096775;27;20063;-75
2023/12/25 01:00:40;;;;;;;7.65;4.07;;;;;;;12.79;100.00;100353.56;5096441;27;20036;-74
2023/12/25 01:03:05;;;;;;;10.07;4.28;;;;;;;12.75;100.00;100359.28;5087271;28;20028;-74
2023/12/25 01:05:31;;;;;;;8.43;5.10;;;;;;;12.73;100.00;100379.97;5092258;27;20028;-74
2023/12/25 01:07:56;;;;;;;13.35;6.82;;;;;;;12.61;100.00;100382.66;5057438;28;20037;-74
2023/12/25 01:10:22;;;;;;;8.65;6.38;;;;;;;12.57;100.00;100399.91;5089491;27;20032;-74
2023/12/25 01:12:47;;;;;;;13.23;6.93;;;;;;;12.54;100.00;100401.97;5092458;27;20058;-74
2023/12/25 01:15:13;;;;;;;13.77;7.57;;;;;;;12.43;100.00;100414.34;5097383;27;20181;-74
2023/12/25 01:17:38;;;;;;;13.27;8.82;;;;;;;12.39;100.00;100420.06;5077888;27;20098;-74
2023/12/25 01:20:05;;;;;;;15.20;8.63;;;;;;;12.39;100.00;100415.56;5098520;27;20038;-74
2023/12/25 01:22:30;;;;;;;16.77;8.35;;;;;;;12.39;100.00;100442.28;5099703;27;20066;-74
2023/12/25 01:24:56;;;;;;;16.40;8.60;;;;;;;12.34;100.00;100436.44;5081268;27;20035;-74
2023/12/25 01:27:21;;;;;;;16.08;8.90;;;;;;;12.24;100.00;100454.16;5096009;27;20039;-74
2023/12/25 01:29:47;;;;;;;15.05;7.82;;;;;;;12.18;100.00;100471.53;5087293;27;20028;-75
2023/12/25 01:32:12;;;;;;;25.85;7.40;;;;;;;12.23;100.00;100484.56;5091749;27;20509;-75
2023/12/25 01:34:38;;;;;;;13.10;5.18;;;;;;;12.22;100.00;100482.00;5095128;27;20052;-75
2023/12/25 01:37:04;;;;;;;11.05;3.65;;;;;;;12.11;100.00;100489.03;5073712;28;20040;-75
2023/12/25 01:39:29;;;;;;;16.15;6.10;;;;;;;12.07;100.00;100484.88;5094305;27;20089;-75
2023/12/25 01:41:55;;;;;;;20.02;6.05;;;;;;;12.08;100.00;100494.59;5081829;28;20077;-74
2023/12/25 01:44:21;;;;;;;21.38;6.82;;;;;;;12.02;100.00;100489.72;5099109;27;21028;-74
2023/12/25 01:46:47;;;;;;;19.70;4.38;;;;;;;11.98;100.00;100488.22;5085281;27;20040;-74
2023/12/25 01:49:13;;;;;;;16.70;3.92;;;;;;;11.98;100.00;100495.38;5095343;27;20043;-75
2023/12/25 01:51:39;;;;;;;14.65;3.75;;;;;;;11.99;100.00;100484.56;5080845;27;20498;-74
2023/12/25 01:54:06;;;;;;;25.95;4.40;;;;;;;11.95;100.00;100477.78;5107077;27;20031;-75
2023/12/25 01:56:32;;;;;;;20.77;4.53;;;;;;;12.00;100.00;100467.59;5098228;27;20036;-75
2023/12/25 01:58:58;;;;;;;25.15;5.03;;;;;;;12.04;100.00;100463.69;5103193;27;20594;-73
2023/12/25 02:01:23;;;;;;;23.00;4.72;;;;;;;12.04;100.00;100463.69;5097829;27;20039;-76
2023/12/25 02:03:49;;;;;;;13.82;4.13;;;;;;;12.04;100.00;100469.06;5070656;28;20036;-74
2023/12/25 02:06:15;;;;;;;11.10;3.58;;;;;;;11.91;100.00;100463.78;5096985;27;20536;-75
2023/12/25 02:08:41;;;;;;;12.93;3.25;;;;;;;11.88;100.00;100447.13;5091248;28;20063;-76
2023/12/25 02:11:06;;;;;;;11.02;2.95;;;;;;;11.73;100.00;100442.91;5098199;27;20040;-74
2023/12/25 02:13:32;;;;;;;8.55;1.92;;;;;;;11.61;100.00;100461.56;5096878;27;20032;-74
2023/12/25 02:15:59;;;;;;;10.75;1.88;;;;;;;11.37;100.00;100458.84;5098674;27;20044;-75
2023/12/25 02:18:25;;;;;;;13.52;2.45;;;;;;;11.24;100.00;100465.19;5089467;27;20028;-74
2023/12/25 02:20:54;;;;;;;5.95;1.85;;;;;;;11.17;100.00;100454.13;5080015;27;20116;-75
2023/12/25 02:23:22;;;;;;;4.10;2.00;;;;;;;11.06;100.00;100451.38;5088806;27;20078;-75
2023/12/25 02:25:58;;;;;;;5.18;1.60;;;;;;;10.93;100.00;100464.72;5075149;28;20046;-74
2023/12/25 02:28:24;;;;;;;5.40;1.35;;;;;;;10.91;100.00;100466.66;5089614;27;20092;-75
2023/12/25 02:30:51;;;;;;;5.18;1.58;;;;;;;10.82;100.00;100477.97;5091403;28;20039;-75
2023/12/25 02:33:17;;;;;;;5.68;1.35;;;;;;;10.77;100.00;100466.78;5094844;27;20049;-75
2023/12/25 02:35:42;;;;;;;6.72;1.60;;;;;;;10.80;100.00;100469.22;5089941;28;20059;-75
2023/12/25 02:38:09;;;;;;;3.53;1.30;;;;;;;10.82;100.00;100473.47;5096655;27;20040;-75
2023/12/25 02:40:44;;;;;;;4.97;1.27;;;;;;;10.78;100.00;100493.31;5090547;28;20036;-73
2023/12/25 02:43:10;;;;;;;9.35;1.92;;;;;;;10.85;100.00;100485.75;5095281;27;20058;-75
2023/12/25 02:45:36;;;;;;;5.47;1.70;;;;;;;10.95;100.00;100481.50;5072857;27;20070;-74
2023/12/25 02:48:02;;;;;;;9.68;1.98;;;;;;;10.97;100.00;100471.53;5104730;27;20047;-74
2023/12/25 02:50:31;;;;;;;4.70;1.50;;;;;;;11.04;100.00;100472.81;5100666;27;20028;-75
2023/12/25 02:52:56;;;;;;;8.15;2.00;;;;;;;11.13;100.00;100464.16;5071127;28;20123;-75
2023/12/25 02:55:22;;;;;;;7.97;2.13;;;;;;;11.18;100.00;100465.63;5091447;27;20043;-74
2023/12/25 02:57:48;;;;;;;11.30;3.30;;;;;;;11.20;100.00;100458.38;5100752;27;20541;-74
2023/12/25 03:00:14;;;;;;;7.85;2.58;;;;;;;11.31;100.00;100470.00;5099335;27;20155;-75
2023/12/25 03:02:39;;;;;;;14.75;2.83;;;;;;;11.33;100.00;100457.38;5078817;27;20036;-74
2023/12/25 03:05:05;;;;;;;15.20;3.20;;;;;;;11.41;100.00;100467.50;5105977;27;20039;-74
2023/12/25 03:07:31;;;;;;;14.63;3.58;;;;;;;11.54;100.00;100462.09;5090464;27;20043;-74
2023/12/25 03:09:57;;;;;;;21.40;4.57;;;;;;;11.67;100.00;100461.09;5089184;28;20511;-74
2023/12/25 03:12:22;;;;;;;19.05;4.55;;;;;;;11.75;100.00;100462.34;5104844;27;20042;-74
2023/12/25 03:14:48;;;;;;;18.88;4.07;;;;;;;11.89;100.00;100479.06;5096398;27;20040;-75
2023/12/25 03:17:13;;;;;;;20.58;4.15;;;;;;;11.85;100.00;100490.13;5102184;27;20519;-73
2023/12/25 03:19:39;;;;;;;18.27;4.82;;;;;;;11.83;100.00;100490.22;5088769;28;20524;-75
2023/12/25 03:22:05;;;;;;;16.00;4.07;;;;;;;11.79;100.00;100494.03;5084291;27;20031;-74
2023/12/25 03:24:31;;;;;;;17.60;4.53;;;;;;;11.83;100.00;100497.38;5088249;27;20070;-74
2023/12/25 03:26:57;;;;;;;21.95;3.58;;;;;;;11.80;100.00;100508.28;5094309;27;20036;-74
2023/12/25 03:29:22;;;;;;;22.02;4.70;;;;;;;11.77;100.00;100514.69;5072581;28;20036;-74
2023/12/25 03:31:49;;;;;;;31.08;5.25;;;;;;;11.81;100.00;100510.84;5090856;28;20043;-74
2023/12/25 03:34:18;;;;;;;23.05;4.60;;;;;;;11.82;100.00;100511.72;5108387;27;20059;-75
2023/12/25 03:36:46;;;;;;;15.30;4.28;;;;;;;11.79;100.00;100528.78;5105455;27;20032;-75
2023/12/25 03:39:12;;;;;;;31.58;5.82;;;;;;;11.87;100.00;100520.25;5088950;27;20039;-76
2023/12/25 03:41:37;;;;;;;20.33;4.47;;;;;;;11.85;100.00;100536.41;5095531;28;20032;-75
2023/12/25 03:44:03;;;;;;;21.20;4.38;;;;;;;11.88;100.00;100520.13;5071722;28;20065;-73
2023/12/25 03:46:29;;;;;;;24.05;4.47;;;;;;;11.86;100.00;100511.38;5104094;27;20039;-74
2023/12/25 03:48:54;;;;;;;17.50;3.75;;;;;;;11.98;100.00;100501.59;5116208;27;20811;-74
2023/12/25 03:51:21;;;;;;;24.92;5.00;;;;;;;11.98;100.00;100498.06;5084911;28;20097;-74
2023/12/25 03:53:47;;;;;;;16.70;4.50;;;;;;;11.98;100.00;100490.03;5115044;27;20097;-73
2023/12/25 03:56:18;;;;;;;19.38;3.72;;;;;;;12.00;100.00;100472.06;5092967;28;20036;-74
2023/12/25 03:58:44;;;;;;;25.10;3.90;;;;;;;12.04;100.00;100495.78;5105100;28;20036;-74
2023/12/25 04:01:10;;;;;;;17.63;3.83;;;;;;;12.03;100.00;100485.22;5090418;28;20028;-75
2023/12/25 04:03:36;;;;;;;19.45;5.80;;;;;;;12.04;100.00;100484.25;5107520;27;20058;-74
2023/12/25 04:06:01;;;;;;;18.13;4.03;;;;;;;12.07;100.00;100484.88;5089817;27;20036;-75
2023/12/25 04:08:27;;;;;;;20.40;3.97;;;;;;;12.09;100.00;100488.25;5092219;28;20083;-76
2023/12/25 04:10:53;;;;;;;19.80;4.18;;;;;;;12.11;100.00;100489.03;5105012;27;20032;-73
2023/12/25 04:13:19;;;;;;;19.95;3.40;;;;;;;12.12;100.00;100489.88;5090937;27;20043;-74
2023/12/25 04:15:45;;;;;;;21.67;4.30;;;;;;;12.12;100.00;100489.88;5074835;28;20044;-74
2023/12/25 04:18:11;;;;;;;17.75;4.18;;;;;;;12.05;100.00;100491.28;5096844;28;20068;-75
2023/12/25 04:20:36;;;;;;;18.30;3.95;;;;;;;12.07;100.00;100484.88;5116564;27;20036;-74
2023/12/25 04:23:02;;;;;;;23.45;4.30;;;;;;;12.12;100.00;100487.19;5113259;27;20047;-74
2023/12/25 04:25:27;;;;;;;22.17;4.07;;;;;;;12.00;100.00;100480.97;5114057;27;20032;-75
2023/12/25 04:27:53;;;;;;;18.15;4.85;;;;;;;12.05;100.00;100488.59;5088865;28;20040;-75
2023/12/25 04:30:18;;;;;;;17.27;3.58;;;;;;;12.15;100.00;100482.47;5094069;27;20153;-74
2023/12/25 04:32:44;;;;;;;22.58;4.75;;;;;;;12.07;100.00;100471.50;5086102;27;20096;-74
2023/12/25 04:35:10;;;;;;;16.17;5.00;;;;;;;12.04;100.00;100470.88;5087136;27;20052;-74
2023/12/25 04:37:35;;;;;;;17.52;4.18;;;;;;;12.09;100.00;100468.72;5108002;27;20079;-74
2023/12/25 04:40:01;;;;;;;20.40;3.78;;;;;;;12.08;100.00;100464.34;5075438;28;20039;-75
2023/12/25 04:42:26;;;;;;;20.13;4.47;;;;;;;12.07;100.00;100468.84;5081252;28;20460;-74
2023/12/25 04:44:52;;;;;;;19.83;3.60;;;;;;;12.01;100.00;100473.78;5081343;27;20039;-74
2023/12/25 04:47:18;;;;;;;31.42;5.50;;;;;;;12.05;100.00;100476.13;5083565;28;20208;-75
2023/12/25 04:49:43;;;;;;;14.45;4.05;;;;;;;12.03;100.00;100471.84;5111244;27;20044;-73
2023/12/25 04:52:09;;;;;;;18.92;3.90;;;;;;;12.09;100.00;100490.94;5101272;27;20043;-74
2023/12/25 04:54:34;;;;;;;16.52;3.03;;;;;;;12.06;100.00;100487.66;5097191;28;20477;-74
2023/12/25 04:57:00;;;;;;;25.27;4.35;;;;;;;12.11;100.00;100477.47;5083410;28;20631;-74
2023/12/25 04:59:26;;;;;;;16.58;4.30;;;;;;;12.09;100.00;100474.91;5107371;27;20032;-74
2023/12/25 05:01:53;;;;;;;21.17;3.85;;;;;;;12.16;100.00;100472.63;5077713;27;20032;-74
2023/12/25 05:04:19;;;;;;;24.05;3.75;;;;;;;12.09;100.00;100476.72;5094956;28;20032;-74
2023/12/25 05:06:44;;;;;;;20.15;4.10;;;;;;;12.16;100.00;100464.63;5094338;28;20060;-74
2023/12/25 05:09:10;;;;;;;20.00;3.65;;;;;;;12.09;100.00;100471.38;5081104;28;20789;-74
2023/12/25 05:11:35;;;;;;;22.10;4.13;;;;;;;12.12;100.00;100461.31;5100152;27;20052;-74
2023/12/25 05:14:01;;;;;;;18.85;3.58;;;;;;;12.10;100.00;100465.94;5096141;27;20028;-74
2023/12/25 05:16:27;;;;;;;23.10;4.28;;;;;;;12.16;100.00;100480.66;5086997;27;20074;-74
2023/12/25 05:18:53;;;;;;;22.42;4.35;;;;;;;12.07;100.00;100471.50;5109868;27;20027;-74
2023/12/25 05:21:18;;;;;;;20.33;3.85;;;;;;;12.11;100.00;100480.16;5104994;27;20151;-75
2023/12/25 05:23:43;;;;;;;15.45;3.83;;;;;;;12.11;100.00;100477.47;5103358;27;20039;-73
2023/12/25 05:26:09;;;;;;;16.02;3.65;;;;;;;12.05;100.00;100467.22;5057530;28;20036;-74
2023/12/25 05:28:35;;;;;;;14.73;3.20;;;;;;;12.09;100.00;100466.88;5095925;27;20036;-75
2023/12/25 05:31:00;;;;;;;13.00;2.83;;;;;;;12.11;100.00;100477.47;5079515;27;20060;-75
2023/12/25 05:33:26;;;;;;;10.98;2.95;;;;;;;12.16;100.00;100472.63;5098587;27;20031;-74
2023/12/25 05:35:51;;;;;;;12.70;2.20;;;;;;;12.15;100.00;100469.13;5092474;27;20135;-73
2023/12/25 05:38:17;;;;;;;9.50;2.70;;;;;;;12.10;100.00;100478.47;5105334;27;20032;-75
2023/12/25 05:40:42;;;;;;;16.15;2.55;;;;;;;12.10;100.00;100473.97;5097841;27;20040;-73
2023/12/25 05:43:10;;;;;;;10.30;2.90;;;;;;;12.12;100.00;100479.19;5083828;27;20027;-73
2023/12/25 05:45:38;;;;;;;11.93;3.00;;;;;;;12.08;100.00;100475.88;5075818;28;20032;-76
2023/12/25 05:48:04;;;;;;;12.40;3.17;;;;;;;12.12;100.00;100481.84;5091796;27;20039;-76
2023/12/25 05:50:29;;;;;;;8.88;2.88;;;;;;;12.10;100.00;100487.31;5101800;27;20036;-75
2023/12/25 05:52:54;;;;;;;13.10;2.60;;;;;;;12.07;100.00;100502.72;5100515;27;20114;-76
2023/12/25 05:55:20;;;;;;;15.63;3.40;;;;;;;12.01;100.00;100521.91;5109518;27;20093;-75
2023/12/25 05:57:46;;;;;;;18.60;4.38;;;;;;;11.98;100.00;100524.78;5094036;27;20036;-75
2023/12/25 06:00:12;;;;;;;14.35;3.65;;;;;;;11.96;100.00;100516.03;5079365;28;20752;-76
2023/12/25 06:02:40;;;;;;;11.57;3.80;;;;;;;11.95;100.00;100516.97;5090670;28;20109;-75
2023/12/25 06:05:06;;;;;;;12.45;3.42;;;;;;;11.86;100.00;100521.22;5096092;27;20101;-75
2023/12/25 06:07:31;;;;;;;8.43;3.63;;;;;;;11.95;100.00;100528.56;5101850;27;20035;-75
2023/12/25 06:09:57;;;;;;;17.85;4.82;;;;;;;11.90;100.00;100539.59;5095474;27;20475;-75
2023/12/25 06:12:23;;;;;;;10.88;3.72;;;;;;;11.93;100.00;100534.00;5101478;27;20032;-75
2023/12/25 06:14:48;;;;;;;13.38;4.32;;;;;;;11.92;100.00;100539.47;5093621;27;20048;-75
2023/12/25 06:17:14;;;;;;;9.95;4.43;;;;;;;11.92;100.00;100545.66;5092966;27;20036;-76
2023/12/25 06:19:39;;;;;;;10.52;3.40;;;;;;;11.96;100.00;100551.63;5090204;28;20044;-75
2023/12/25 06:22:05;;;;;;;16.55;3.78;;;;;;;11.98;100.00;100547.00;5093604;27;20035;-74
2023/12/25 06:24:30;;;;;;;12.07;3.50;;;;;;;11.93;100.00;100551.84;5100504;27;20035;-74
2023/12/25 06:26:56;;;;;;;17.23;4.18;;;;;;;11.98;100.00;100549.69;5087710;28;20113;-75
2023/12/25 06:29:21;;;;;;;9.10;3.30;;;;;;;11.88;100.00;100560.19;5090436;28;20040;-75
2023/12/25 06:31:47;;;;;;;10.63;4.15;;;;;;;11.85;100.00;100555.09;5094037;27;20040;-75
2023/12/25 06:34:12;;;;;;;9.60;3.15;;;;;;;11.72;100.00;100564.06;5098752;27;20044;-75
2023/12/25 06:36:38;;;;;;;19.67;4.50;;;;;;;11.74;100.00;100562.13;5089483;27;20032;-75
2023/12/25 06:39:03;;;;;;;15.68;3.28;;;;;;;11.67;100.00;100562.59;5104710;27;20047;-75
2023/12/25 06:41:29;;;;;;;11.00;3.45;;;;;;;11.71;100.00;100559.72;5084764;27;20036;-75
2023/12/25 06:43:54;;;;;;;10.73;3.08;;;;;;;11.62;100.00;100566.56;5080479;27;20043;-74
2023/12/25 06:46:20;;;;;;;13.10;3.40;;;;;;;11.73;100.00;100569.28;5090469;27;20028;-75
2023/12/25 06:48:45;;;;;;;10.88;2.90;;;;;;;11.73;100.00;100569.28;5087945;27;20048;-75
2023/12/25 06:51:11;;;;;;;10.65;2.53;;;;;;;11.65;100.00;100563.69;5069036;28;20075;-75
2023/12/25 06:53:37;;;;;;;6.25;1.92;;;;;;;11.65;100.00;100567.19;5091537;27;20074;-75
2023/12/25 06:56:03;;;;;;;5.50;2.25;;;;;;;11.67;100.00;100561.75;5086965;28;20047;-75
2023/12/25 06:58:28;;;;;;;7.15;2.30;;;;;;;11.58;100.00;100562.41;5098990;27;20088;-75
2023/12/25 07:00:54;;;;;;;6.10;1.90;;;;;;;11.57;100.00;100563.38;5091842;27;20598;-74
2023/12/25 07:03:19;;;;;;;9.60;1.85;;;;;;;11.53;100.00;100568.06;5086708;28;20768;-74
2023/12/25 07:05:45;;;;;;;7.47;2.13;;;;;;;11.56;100.00;100562.50;5096229;27;20036;-75
2023/12/25 07:08:10;;;;;;;6.43;1.70;;;;;;;11.49;100.00;100555.03;5086927;27;20862;-74
2023/12/25 07:10:36;;;;;;;5.78;1.98;;;;;;;11.52;100.00;100562.84;5091934;27;20036;-75
2023/12/25 07:13:02;;;;;;;7.45;1.98;;;;;;;11.43;100.00;100553.66;5092974;27;20029;-74
2023/12/25 07:15:28;;;;;;;5.43;1.55;;;;;;;11.44;100.00;100549.19;5090666;27;20526;-75
2023/12/25 07:17:53;;;;;;;6.07;1.70;;;;;;;11.37;100.00;100548.78;5082865;27;20073;-74
2023/12/25 07:20:19;;;;;;;6.07;2.05;;;;;;;11.37;100.00;100557.63;5075103;28;20047;-74
2023/12/25 07:22:44;;;;;;;6.30;1.48;;;;;;;11.42;100.00;100557.31;5103453;27;20039;-75
2023/12/25 07:25:10;;;;;;;2.97;1.50;;;;;;;11.38;100.00;100569.16;5090091;27;20032;-75
2023/12/25 07:27:36;;;;;;;5.72;1.52;;;;;;;11.35;100.00;100561.38;5104492;27;20036;-74
2023/12/25 07:30:02;;;;;;;4.95;1.52;;;;;;;11.32;100.00;100562.44;5073335;27;20043;-74
2023/12/25 07:32:29;;;;;;;10.90;1.88;;;;;;;11.38;100.00;100570.00;5100656;27;20032;-75
2023/12/25 07:34:54;;;;;;;5.43;1.65;;;;;;;11.33;100.00;100580.16;5089088;28;20052;-75
2023/12/25 07:37:20;;;;;;;5.28;1.50;;;;;;;11.21;100.00;100574.84;5102913;27;20043;-74
2023/12/25 07:39:45;;;;;;;3.95;1.55;;;;;;;11.29;100.00;100573.31;5102572;27;20040;-75
2023/12/25 07:42:11;;;;;;;4.07;1.45;;;;;;;11.30;100.00;100579.56;5102952;27;20032;-75
2023/12/25 07:44:39;;;;;;;3.00;1.13;;;;;;;11.22;100.00;100579.22;5094244;27;20027;-74
2023/12/25 07:47:05;;;;;;;5.88;1.67;;;;;;;11.30;100.00;100588.41;5101169;27;20044;-74
2023/12/25 07:49:31;;;;;;;5.10;1.65;;;;;;;11.14;100.00;100596.66;5094602;27;20117;-74
2023/12/25 07:51:57;;;;;;;3.97;1.38;;;;;;;11.21;100.00;100596.22;5089958;27;20674;-75
2023/12/25 07:54:22;;;;;;;3.20;1.20;;;;;;;11.29;100.00;100597.34;5064993;28;20527;-75
2023/12/25 07:56:48;;;;;;;3.33;1.52;;;;;;;11.31;100.00;100602.59;5089523;28;20044;-74
2023/12/25 07:59:13;;;;;;;6.05;1.45;;;;;;;11.25;100.00;100593.22;5076240;27;20826;-75
2023/12/25 08:01:38;;;;;;;5.85;1.45;;;;;;;11.20;100.00;100590.03;5100470;27;20046;-74
2023/12/25 08:04:04;;;;;;;6.15;1.60;;;;;;;11.20;100.00;100602.50;5101503;27;20635;-75
2023/12/25 08:06:30;;;;;;;3.63;1.10;;;;;;;11.25;100.00;100605.72;5095486;27;20056;-74
2023/12/25 08:08:56;;;;;;;7.13;1.75;;;;;;;11.26;100.00;100602.06;5077446;28;21176;-75
2023/12/25 08:11:22;;;;;;;3.05;1.20;;;;;;;11.24;100.00;100603.97;5083650;28;20032;-75
2023/12/25 08:13:47;;;;;;;4.05;1.67;;;;;;;11.21;100.00;100612.22;5088872;27;20036;-75
2023/12/25 08:16:13;;;;;;;5.72;1.75;;;;;;;11.37;100.00;100616.38;5089086;27;20044;-74
2023/12/25 08:18:38;;;;;;;10.80;1.95;;;;;;;11.31;100.00;100615.94;5097054;27;20047;-76
2023/12/25 08:21:04;;;;;;;5.85;2.13;;;;;;;11.32;100.00;100607.81;5097023;27;20031;-75
2023/12/25 08:23:30;;;;;;;8.00;1.67;;;;;;;11.39;100.00;100608.25;5102936;27;20759;-74
2023/12/25 08:25:56;;;;;;;7.90;2.42;;;;;;;11.49;100.00;100598.63;5102884;27;20032;-74
2023/12/25 08:28:21;;;;;;;4.72;1.52;;;;;;;11.44;100.00;100608.75;5093013;28;20032;-74
2023/12/25 08:30:47;;;;;;;4.85;2.05;;;;;;;11.45;100.00;100607.84;5100804;27;20040;-74
2023/12/25 08:33:12;;;;;;;5.15;1.90;;;;;;;11.53;100.00;100612.63;5084298;28;20032;-75
2023/12/25 08:35:38;;;;;;;10.32;1.60;;;;;;;11.47;100.00;100608.56;5095833;27;20563;-73
2023/12/25 08:38:03;;;;;;;4.07;1.80;;;;;;;11.49;100.00;100608.44;5093579;28;20032;-74
2023/12/25 08:40:29;;;;;;;3.72;1.60;;;;;;;11.45;100.00;100605.16;5084898;27;20028;-74
2023/12/25 08:42:55;;;;;;;6.28;1.75;;;;;;;11.52;100.00;100606.41;5106105;27;20996;-74
2023/12/25 08:45:20;;;;;;;3.08;1.63;;;;;;;11.49;100.00;100611.97;5094552;28;20580;-74
2023/12/25 08:47:51;;;;;;;6.10;2.40;;;;;;;11.48;100.00;100620.09;5094696;28;20081;-74
2023/12/25 08:50:17;;;;;;;9.13;2.03;;;;;;;11.60;100.00;100627.25;5099109;27;20041;-75
2023/12/25 08:52:43;;;;;;;6.10;1.85;;;;;;;11.59;100.00;100637.06;5101261;27;20040;-74
2023/12/25 08:55:09;;;;;;;4.80;1.80;;;;;;;11.49;100.00;100637.81;5090890;27;20164;-74
2023/12/25 08:57:35;;;;;;;3.85;1.80;;;;;;;11.52;100.00;100649.16;5095247;27;20061;-75
2023/12/25 09:00:10;;;;;;;7.88;1.92;;;;;;;11.54;100.00;100641.00;5089364;28;20036;-76
2023/12/25 09:02:36;;;;;;;6.65;2.00;;;;;;;11.52;100.00;100634.94;5096163;27;20033;-75
2023/12/25 09:05:02;;;;;;;5.75;1.42;;;;;;;11.59;100.00;100637.06;5102534;27;20336;-73
2023/12/25 09:07:27;;;;;;;6.93;1.73;;;;;;;11.68;100.00;100638.22;5104862;27;20043;-75
2023/12/25 09:09:53;;;;;;;6.10;1.70;;;;;;;11.67;100.00;100636.53;5100758;27;20043;-75
2023/12/25 09:12:18;;;;;;;5.72;1.88;;;;;;;11.68;100.00;100638.22;5117198;27;20893;-74
2023/12/25 09:14:45;;;;;;;7.07;1.95;;;;;;;11.62;100.00;100650.19;5092317;27;20779;-75
2023/12/25 09:17:11;;;;;;;4.63;1.42;;;;;;;11.67;100.00;100642.72;5085554;28;20096;-75
2023/12/25 09:19:36;;;;;;;4.78;1.65;;;;;;;11.58;100.00;100651.38;5084578;28;20750;-74
2023/12/25 09:22:03;;;;;;;10.07;2.10;;;;;;;11.67;100.00;100655.22;5109798;28;20036;-75
2023/12/25 09:24:28;;;;;;;7.97;2.45;;;;;;;11.73;100.00;100657.44;5115119;27;20597;-74
2023/12/25 09:26:54;;;;;;;6.47;2.42;;;;;;;11.64;100.00;100658.94;5106915;27;22492;-76
2023/12/25 09:29:20;;;;;;;9.35;2.58;;;;;;;11.68;100.00;100656.91;5091062;28;20065;-76
2023/12/25 09:31:45;;;;;;;5.93;2.00;;;;;;;11.66;100.00;100666.88;5075526;28;20036;-75
2023/12/25 09:34:10;;;;;;;7.05;2.63;;;;;;;11.72;100.00;100670.94;5112792;27;20082;-75
2023/12/25 09:36:36;;;;;;;7.90;3.08;;;;;;;11.67;100.00;100663.25;5105526;28;20040;-74
2023/12/25 09:39:02;;;;;;;8.07;2.60;;;;;;;11.75;100.00;100662.72;5109360;27;20043;-75
2023/12/25 09:41:32;;;;;;;3.35;1.60;;;;;;;11.76;100.00;100667.94;5114213;27;20039;-75
2023/12/25 09:43:59;;;;;;;7.13;2.30;;;;;;;11.79;100.00;100682.88;5106533;27;20031;-74
2023/12/25 09:46:25;;;;;;;5.18;2.00;;;;;;;11.86;100.00;100686.88;5103829;27;20035;-74
2023/12/25 09:48:52;;;;;;;7.18;1.92;;;;;;;11.86;100.00;100682.38;5109578;27;20043;-75
2023/12/25 09:51:18;;;;;;;4.97;1.92;;;;;;;11.80;100.00;100688.13;5108915;27;20040;-74
2023/12/25 09:53:44;;;;;;;5.25;2.40;;;;;;;11.80;100.00;100688.13;5108851;27;20030;-75
2023/12/25 09:56:12;;;;;;;5.03;1.98;;;;;;;11.78;100.00;100687.38;5108433;27;20046;-75
2023/12/25 09:58:39;;;;;;;4.32;1.85;;;;;;;11.57;100.00;100697.75;5112844;27;20043;-75
2023/12/25 10:01:04;;;;;;;2.95;2.08;;;;;;;11.60;100.00;100689.53;5081051;28;20033;-74
2023/12/25 10:03:33;;;;;;;8.93;2.38;;;;;;;11.72;100.00;100692.28;5105601;27;20503;-75
2023/12/25 10:05:58;;;;;;;6.50;2.03;;;;;;;11.69;100.00;100682.66;5101479;27;20101;-74
2023/12/25 10:08:24;;;;;;;7.32;2.45;;;;;;;11.85;100.00;100674.47;5104733;27;20044;-74
2023/12/25 10:10:53;;;;;;;7.18;2.65;;;;;;;11.91;100.00;100674.03;5100409;27;20036;-74
2023/12/25 10:13:19;;;;;;;4.57;2.00;;;;;;;11.87;100.00;100673.38;5103444;27;20036;-74
2023/12/25 10:15:44;;;;;;;5.95;2.05;;;;;;;12.01;100.00;100656.38;5100663;27;20097;-75
2023/12/25 10:18:10;;;;;;;7.72;2.00;;;;;;;11.97;100.00;100654.88;5077581;28;20036;-75
2023/12/25 10:20:35;;;;;;;5.07;2.05;;;;;;;11.92;100.00;100657.88;5106257;27;20071;-74
2023/12/25 10:23:11;;;;;;;11.00;2.20;;;;;;;11.98;100.00;100656.59;5066617;28;20036;-74
2023/12/25 10:25:42;;;;;;;7.32;1.90;;;;;;;11.85;100.00;100669.13;5095342;27;20137;-73
2023/12/25 10:28:11;;;;;;;5.35;1.63;;;;;;;11.89;100.00;100679.47;5102557;27;20071;-74
2023/12/25 10:30:37;;;;;;;1.95;1.20;;;;;;;11.95;100.00;100671.97;5094165;27;20048;-75
2023/12/25 10:33:12;;;;;;;6.15;2.53;;;;;;;12.01;100.00;100683.09;5084258;27;20066;-75
2023/12/25 10:35:38;;;;;;;7.10;1.65;;;;;;;12.02;100.00;100665.25;5070681;28;20701;-75
2023/12/25 10:38:05;;;;;;;7.88;1.65;;;;;;;11.92;100.00;100684.59;5078072;27;20029;-73
2023/12/25 10:40:32;;;;;;;6.03;1.83;;;;;;;11.95;100.00;100677.31;5075863;28;20036;-75
2023/12/25 10:42:57;;;;;;;5.32;2.10;;;;;;;12.14;100.00;100661.66;5076318;27;20027;-74
2023/12/25 10:45:30;;;;;;;3.90;1.50;;;;;;;12.07;100.00;100645.22;5074013;28;20277;-75
2023/12/25 10:48:02;;;;;;;;;;;;;;;12.00;100.00;100652.00;5072201;28;20033;-75
2023/12/25 10:50:30;;;;;;;5.10;1.30;;;;;;;12.08;100.00;100652.28;5065539;28;19979;-74
2023/12/25 10:53:00;;;;;;;3.80;1.75;;;;;;;12.10;100.00;100658.38;5073957;28;20387;-75
2023/12/25 10:55:40;;;;;;;7.60;2.20;;;;;;;12.18;100.00;100653.31;5078633;28;20040;-74
2023/12/25 10:58:08;;;;;;;9.15;1.90;;;;;;;12.03;100.00;100651.75;5071209;28;20032;-74
2023/12/25 11:00:39;;;;;;;6.03;2.20;;;;;;;12.07;100.00;100644.38;5074090;28;20238;-74
2023/12/25 11:03:05;;;;;;;6.45;1.40;;;;;;;11.93;100.00;100653.38;5075956;28;20037;-74
2023/12/25 11:05:31;;;;;;;6.28;2.20;;;;;;;11.99;100.00;100654.75;5077999;28;20166;-74
2023/12/25 11:08:00;;;;;;;3.05;1.50;;;;;;;12.01;100.00;100668.88;5094250;27;20034;-74
2023/12/25 11:10:29;;;;;;;3.47;1.75;;;;;;;12.11;100.00;100667.25;5082064;28;20028;-74